EHFS

Vlissingen

Vlissingen, The Netherlands
METAR EHFS 140025Z AUTO 07009KT 9999 FEW009/// 01/00 Q1021 W///H///
Observed Flight Rules
Dec-14 @ 00:25 UTC (19 minutes ago) Visual Flight Rules
Wind Visibility Clouds
70° at 9 knots 10,000+ meters
  • Few at 900' AGL
Temperatures Readings
Current 1°C / 34°F
Dewpoint 0°C / 32°F
Humidity 93%
Altimeter 30.15" Hg
Pressure 1021 hPa
Elevation 32
METAR EHFS 140025Z AUTO 07009KT 9999 FEW009/// 01/00 Q1021 W///H///
Observed Flight Rules
Dec-14 @ 00:25 UTC
(19 minutes ago)
VFR
Wind Visibility
70° at 9 knots 10,000+ meters
Clouds
  • Few at 900' AGL
Temperature Dewpoint
1°C / 34°F 0°C / 32°F
Humidity Altimeter Pressure
93% 30.15" Hg 1021 hPa